createdAt,value
2023-06-30T00:00:39.252Z,38.63
2023-06-30T00:01:39.277Z,38.70
2023-06-30T00:02:39.413Z,38.64
2023-06-30T00:03:39.470Z,38.64
2023-06-30T00:04:39.425Z,38.66
2023-06-30T00:05:39.496Z,38.60
2023-06-30T00:06:39.530Z,38.55
2023-06-30T00:07:39.681Z,38.58
2023-06-30T00:08:39.667Z,38.62
2023-06-30T00:09:39.725Z,38.61
2023-06-30T00:10:39.788Z,38.73
2023-06-30T00:11:39.817Z,38.73
2023-06-30T00:12:39.853Z,38.74
2023-06-30T00:13:39.904Z,38.69
2023-06-30T00:14:39.910Z,38.77
2023-06-30T00:15:39.985Z,38.79
2023-06-30T00:16:39.926Z,38.76
2023-06-30T00:17:40.010Z,38.84
2023-06-30T00:18:39.968Z,38.91
2023-06-30T00:19:39.996Z,38.96
2023-06-30T00:20:40.020Z,38.92
2023-06-30T00:21:40.002Z,38.98
2023-06-30T00:22:40.023Z,39.01
2023-06-30T00:23:40.023Z,39.01
2023-06-30T00:24:40.023Z,38.91
2023-06-30T00:25:40.028Z,38.93
2023-06-30T00:26:40.026Z,38.94
2023-06-30T00:27:40.037Z,38.94
2023-06-30T00:28:40.050Z,38.94
2023-06-30T00:29:40.085Z,39.00
2023-06-30T00:30:40.056Z,39.02
2023-06-30T00:31:40.076Z,39.06
2023-06-30T00:32:40.054Z,39.06
2023-06-30T00:33:40.045Z,39.06
2023-06-30T00:34:40.054Z,39.05
2023-06-30T00:35:40.107Z,39.14
2023-06-30T00:36:40.040Z,39.10
2023-06-30T00:37:40.055Z,39.10
2023-06-30T00:38:40.090Z,39.10
2023-06-30T00:39:40.069Z,39.11
2023-06-30T00:40:40.053Z,39.13
2023-06-30T00:41:40.068Z,39.21
2023-06-30T00:42:40.086Z,39.31
2023-06-30T00:43:40.061Z,39.32
2023-06-30T00:44:40.082Z,39.31
2023-06-30T00:45:40.104Z,39.35
2023-06-30T00:46:40.133Z,39.36
2023-06-30T00:47:40.086Z,39.41
2023-06-30T00:48:40.113Z,39.41
2023-06-30T00:49:40.109Z,39.46
2023-06-30T00:50:40.096Z,39.47
2023-06-30T00:51:40.091Z,39.52
2023-06-30T00:52:40.150Z,39.63
2023-06-30T00:53:40.097Z,39.64
2023-06-30T00:54:40.100Z,39.63
2023-06-30T00:55:40.095Z,39.66
2023-06-30T00:56:40.106Z,39.65
2023-06-30T00:57:40.108Z,39.60
2023-06-30T00:58:40.116Z,39.62
2023-06-30T00:59:40.140Z,39.67
2023-06-30T01:00:40.114Z,39.66
2023-06-30T01:01:40.292Z,39.73
2023-06-30T01:02:40.175Z,39.77
2023-06-30T01:03:40.336Z,39.75
2023-06-30T01:04:40.336Z,39.76
2023-06-30T01:05:40.139Z,39.74
2023-06-30T01:06:40.166Z,39.69
2023-06-30T01:07:40.351Z,39.67
2023-06-30T01:08:40.163Z,39.62
2023-06-30T01:09:40.639Z,39.65
2023-06-30T01:10:40.171Z,39.61
2023-06-30T01:11:40.163Z,39.70
2023-06-30T01:12:40.186Z,39.73
2023-06-30T01:13:40.174Z,39.79
2023-06-30T01:14:40.203Z,39.72
2023-06-30T01:15:40.174Z,39.73
2023-06-30T01:16:40.214Z,39.79
2023-06-30T01:17:40.221Z,39.79
2023-06-30T01:18:40.188Z,39.78
2023-06-30T01:19:40.236Z,39.78
2023-06-30T01:20:40.192Z,39.80
2023-06-30T01:21:40.202Z,39.81
2023-06-30T01:22:40.210Z,39.88
2023-06-30T01:23:40.208Z,39.89
2023-06-30T01:24:40.248Z,39.92
2023-06-30T01:25:40.257Z,39.91
2023-06-30T01:26:40.208Z,39.92
2023-06-30T01:27:40.207Z,39.93
2023-06-30T01:28:40.257Z,39.88
2023-06-30T01:29:40.193Z,39.89
2023-06-30T01:30:40.206Z,39.90
2023-06-30T01:31:40.185Z,39.95
2023-06-30T01:32:40.229Z,39.90
2023-06-30T01:33:40.229Z,39.91
2023-06-30T01:34:40.195Z,39.96
2023-06-30T01:35:40.226Z,39.92
2023-06-30T01:36:40.183Z,39.94
2023-06-30T01:37:40.185Z,39.96
2023-06-30T01:38:40.211Z,39.97
2023-06-30T01:39:40.168Z,40.01
2023-06-30T01:40:40.160Z,40.03
2023-06-30T01:41:40.165Z,40.03
2023-06-30T01:42:40.161Z,40.05
2023-06-30T01:43:40.159Z,40.09
2023-06-30T01:44:40.193Z,40.09
2023-06-30T01:45:40.148Z,40.08
2023-06-30T01:46:40.206Z,40.12
2023-06-30T01:47:40.188Z,40.15
2023-06-30T01:48:40.167Z,40.13
2023-06-30T01:49:40.227Z,40.18
2023-06-30T01:50:40.151Z,40.14
2023-06-30T01:51:40.143Z,40.15
2023-06-30T01:52:40.142Z,40.20
2023-06-30T01:53:40.136Z,40.20
2023-06-30T01:54:40.237Z,40.23
2023-06-30T01:55:40.141Z,40.18
2023-06-30T01:56:40.148Z,40.23
2023-06-30T01:57:40.132Z,40.23
2023-06-30T01:58:40.144Z,40.21
2023-06-30T01:59:40.154Z,40.23
2023-06-30T02:00:40.136Z,40.23
2023-06-30T02:01:40.176Z,40.20
2023-06-30T02:02:40.186Z,40.22
2023-06-30T02:03:40.218Z,40.19
2023-06-30T02:04:40.119Z,40.24
2023-06-30T02:05:40.148Z,40.20
2023-06-30T02:06:40.117Z,40.22
2023-06-30T02:07:40.201Z,40.16
2023-06-30T02:08:40.132Z,40.16
2023-06-30T02:09:47.951Z,40.18
2023-06-30T02:10:40.092Z,40.23
2023-06-30T02:11:40.088Z,40.20
2023-06-30T02:12:40.108Z,40.23
2023-06-30T02:13:40.079Z,40.21
2023-06-30T02:14:40.120Z,40.23
2023-06-30T02:15:40.059Z,40.23
2023-06-30T02:16:40.139Z,40.25
2023-06-30T02:17:40.068Z,40.19
2023-06-30T02:18:40.047Z,40.18
2023-06-30T02:19:40.039Z,40.18
2023-06-30T02:20:40.041Z,40.20
2023-06-30T02:21:40.047Z,40.19
2023-06-30T02:22:40.033Z,40.15
2023-06-30T02:23:40.011Z,40.22
2023-06-30T02:24:39.997Z,40.28
2023-06-30T02:25:40.009Z,40.27
2023-06-30T02:26:39.984Z,40.29
2023-06-30T02:27:39.985Z,40.31
2023-06-30T02:28:39.977Z,40.34
2023-06-30T02:29:39.963Z,40.37
2023-06-30T02:30:40.015Z,40.34
2023-06-30T02:31:39.997Z,40.33
2023-06-30T02:32:40.010Z,40.33
2023-06-30T02:33:39.953Z,40.34
2023-06-30T02:34:39.917Z,40.38
2023-06-30T02:35:39.979Z,40.36
2023-06-30T02:36:39.899Z,40.37
2023-06-30T02:37:39.924Z,40.36
2023-06-30T02:38:39.879Z,40.43
2023-06-30T02:39:39.879Z,40.43
2023-06-30T02:40:39.872Z,40.43
2023-06-30T02:41:39.872Z,40.39
2023-06-30T02:42:39.861Z,40.37
2023-06-30T02:43:39.862Z,40.31
2023-06-30T02:44:39.840Z,40.26
2023-06-30T02:45:39.888Z,40.28
2023-06-30T02:46:39.826Z,40.21
2023-06-30T02:47:39.830Z,40.19
2023-06-30T02:48:39.819Z,40.17
2023-06-30T02:49:39.802Z,40.17
2023-06-30T02:50:39.799Z,40.19
2023-06-30T02:51:39.791Z,40.21
2023-06-30T02:52:39.781Z,40.22
2023-06-30T02:53:39.817Z,40.20
2023-06-30T02:54:39.770Z,40.20
2023-06-30T02:55:39.767Z,40.22
2023-06-30T02:56:39.757Z,40.21
2023-06-30T02:57:39.748Z,40.25
2023-06-30T02:58:39.779Z,40.23
2023-06-30T02:59:39.730Z,40.28
2023-06-30T03:00:39.725Z,40.29
2023-06-30T03:01:39.770Z,40.25
2023-06-30T03:02:39.935Z,40.21
2023-06-30T03:03:39.786Z,40.21
2023-06-30T03:04:39.702Z,40.20
2023-06-30T03:05:39.688Z,40.25
2023-06-30T03:06:39.675Z,40.20
2023-06-30T03:07:39.691Z,40.16
2023-06-30T03:08:39.662Z,40.20
2023-06-30T03:09:39.679Z,40.20
2023-06-30T03:10:39.641Z,40.19
2023-06-30T03:11:39.649Z,40.26
2023-06-30T03:12:39.658Z,40.22
2023-06-30T03:13:39.612Z,40.23
2023-06-30T03:14:39.612Z,40.24
2023-06-30T03:15:39.613Z,40.20
2023-06-30T03:16:39.618Z,40.25
2023-06-30T03:17:39.610Z,40.19
2023-06-30T03:18:39.582Z,40.24
2023-06-30T03:19:39.580Z,40.17
2023-06-30T03:20:39.569Z,40.26
2023-06-30T03:21:39.559Z,40.27
2023-06-30T03:22:39.547Z,40.33
2023-06-30T03:23:39.573Z,40.29
2023-06-30T03:24:39.559Z,40.28
2023-06-30T03:25:39.558Z,40.25
2023-06-30T03:26:39.522Z,40.26
2023-06-30T03:27:39.523Z,40.26
2023-06-30T03:28:39.592Z,40.24
2023-06-30T03:29:39.500Z,40.22
2023-06-30T03:30:39.522Z,40.26
2023-06-30T03:31:39.490Z,40.28
2023-06-30T03:32:39.547Z,40.29
2023-06-30T03:33:39.481Z,40.26
2023-06-30T03:34:39.476Z,40.27
2023-06-30T03:35:39.464Z,40.32
2023-06-30T03:36:39.458Z,40.29
2023-06-30T03:37:39.450Z,40.33
2023-06-30T03:38:39.435Z,40.32
2023-06-30T03:39:39.435Z,40.33
2023-06-30T03:40:39.497Z,40.31
2023-06-30T03:41:39.451Z,40.36
2023-06-30T03:42:39.427Z,40.41
2023-06-30T03:43:39.404Z,40.45
2023-06-30T03:44:39.427Z,40.51
2023-06-30T03:45:39.432Z,40.53
2023-06-30T03:46:39.500Z,40.53
2023-06-30T03:47:39.396Z,40.56
2023-06-30T03:48:39.387Z,40.54
2023-06-30T03:49:39.372Z,40.56
2023-06-30T03:50:39.388Z,40.54
2023-06-30T03:51:39.359Z,40.50
2023-06-30T03:52:39.340Z,40.50
2023-06-30T03:53:39.335Z,40.49
2023-06-30T03:54:39.359Z,40.50
2023-06-30T03:55:39.379Z,40.47
2023-06-30T03:56:39.395Z,40.50
2023-06-30T03:57:39.435Z,40.52
2023-06-30T03:58:39.433Z,40.46
2023-06-30T03:59:39.455Z,40.52
2023-06-30T04:00:39.486Z,40.49
2023-06-30T04:01:39.493Z,40.49
2023-06-30T04:02:39.556Z,40.51
2023-06-30T04:03:39.786Z,40.49
2023-06-30T04:04:39.733Z,40.50
2023-06-30T04:05:39.573Z,40.52
2023-06-30T04:06:39.605Z,40.50
2023-06-30T04:07:40.319Z,40.54
2023-06-30T04:08:39.617Z,40.57
2023-06-30T04:09:39.648Z,40.56
2023-06-30T04:10:39.666Z,40.61
2023-06-30T04:11:39.701Z,40.64
2023-06-30T04:12:39.691Z,40.60
2023-06-30T04:13:39.725Z,40.62
2023-06-30T04:14:39.728Z,40.62
2023-06-30T04:15:39.735Z,40.60
2023-06-30T04:16:39.814Z,40.65
2023-06-30T04:17:39.809Z,40.70
2023-06-30T04:18:39.764Z,40.73
2023-06-30T04:19:39.774Z,40.75
2023-06-30T04:20:39.795Z,40.76
2023-06-30T04:21:39.809Z,40.78
2023-06-30T04:22:39.825Z,40.79
2023-06-30T04:23:39.835Z,40.73
2023-06-30T04:24:39.854Z,40.66
2023-06-30T04:25:39.876Z,40.65
2023-06-30T04:26:39.900Z,40.62
2023-06-30T04:27:39.914Z,40.64
2023-06-30T04:28:39.917Z,40.69
2023-06-30T04:29:39.966Z,40.69
2023-06-30T04:30:39.950Z,40.65
2023-06-30T04:31:40.028Z,40.62
2023-06-30T04:32:40.035Z,40.62
2023-06-30T04:33:40.000Z,40.60
2023-06-30T04:34:40.026Z,40.65
2023-06-30T04:35:40.091Z,40.62
2023-06-30T04:36:40.038Z,40.59
2023-06-30T04:37:40.059Z,40.63
2023-06-30T04:38:40.102Z,40.61
2023-06-30T04:39:40.109Z,40.57
2023-06-30T04:40:40.112Z,40.53
2023-06-30T04:41:40.126Z,40.58
2023-06-30T04:42:40.205Z,40.50
2023-06-30T04:43:40.136Z,40.51
2023-06-30T04:44:40.157Z,40.52
2023-06-30T04:45:40.199Z,40.51
2023-06-30T04:46:40.255Z,40.50
2023-06-30T04:47:40.221Z,40.47
2023-06-30T04:48:40.213Z,40.47
2023-06-30T04:49:40.225Z,40.49
2023-06-30T04:50:40.241Z,40.48
2023-06-30T04:51:40.246Z,40.48
2023-06-30T04:52:40.282Z,40.50
2023-06-30T04:53:40.283Z,40.48
2023-06-30T04:54:40.310Z,40.55
2023-06-30T04:55:40.313Z,40.57
2023-06-30T04:56:40.325Z,40.63
2023-06-30T04:57:40.349Z,40.63
2023-06-30T04:58:40.353Z,40.56
2023-06-30T04:59:40.362Z,40.58
2023-06-30T05:00:40.376Z,40.53
2023-06-30T05:01:40.449Z,40.52
2023-06-30T05:02:40.448Z,40.58
2023-06-30T05:03:40.478Z,40.59
2023-06-30T05:04:40.427Z,40.59
2023-06-30T05:05:40.444Z,40.56
2023-06-30T05:06:40.439Z,40.57
2023-06-30T05:07:40.530Z,40.52
2023-06-30T05:08:40.465Z,40.52
2023-06-30T05:09:40.467Z,40.49
2023-06-30T05:10:40.483Z,40.48
2023-06-30T05:11:40.508Z,40.54
2023-06-30T05:12:40.530Z,40.52
2023-06-30T05:13:40.517Z,40.43
2023-06-30T05:14:40.521Z,40.50
2023-06-30T05:15:40.814Z,40.53
2023-06-30T05:16:40.615Z,40.51
2023-06-30T05:17:40.696Z,40.55
2023-06-30T05:18:40.573Z,40.58
2023-06-30T05:19:40.583Z,40.58
2023-06-30T05:20:40.612Z,40.63
2023-06-30T05:21:40.598Z,40.72
2023-06-30T05:22:40.618Z,40.71
2023-06-30T05:23:40.623Z,40.74
2023-06-30T05:24:40.653Z,40.78
2023-06-30T05:25:40.694Z,40.77
2023-06-30T05:26:40.657Z,40.78
2023-06-30T05:27:40.669Z,40.83
2023-06-30T05:28:43.145Z,40.80
2023-06-30T05:29:40.674Z,40.79
2023-06-30T05:30:40.692Z,40.82
2023-06-30T05:31:40.719Z,40.85
2023-06-30T05:32:40.676Z,40.81
2023-06-30T05:33:40.669Z,40.84
2023-06-30T05:34:40.641Z,40.83
2023-06-30T05:35:40.633Z,40.82
2023-06-30T05:36:41.250Z,40.84
2023-06-30T05:37:41.261Z,40.82
2023-06-30T05:38:40.611Z,40.85
2023-06-30T05:39:40.605Z,40.85
2023-06-30T05:40:40.596Z,40.84
2023-06-30T05:41:40.597Z,40.86
2023-06-30T05:42:40.576Z,40.90
2023-06-30T05:43:40.572Z,40.90
2023-06-30T05:44:40.650Z,40.90
2023-06-30T05:45:40.589Z,40.93
2023-06-30T05:46:40.959Z,40.91
2023-06-30T05:47:40.552Z,40.93
2023-06-30T05:48:40.538Z,40.96
2023-06-30T05:49:40.571Z,40.93
2023-06-30T05:50:42.447Z,40.96
2023-06-30T05:51:40.519Z,40.98
2023-06-30T05:52:40.505Z,40.98
2023-06-30T05:53:40.507Z,40.97
2023-06-30T05:54:40.495Z,41.00
2023-06-30T05:55:40.497Z,41.01
2023-06-30T05:56:40.530Z,41.04
2023-06-30T05:57:40.476Z,41.03
2023-06-30T05:58:40.465Z,40.99
2023-06-30T05:59:40.470Z,40.97
2023-06-30T06:00:40.758Z,40.99
2023-06-30T06:01:40.443Z,41.02
2023-06-30T06:02:40.775Z,41.03
2023-06-30T06:03:40.672Z,41.00
2023-06-30T06:04:40.631Z,41.04
2023-06-30T06:05:40.593Z,41.01
2023-06-30T06:06:40.432Z,40.99
2023-06-30T06:07:40.471Z,41.01
2023-06-30T06:08:40.398Z,41.00
2023-06-30T06:09:40.379Z,40.96
2023-06-30T06:10:40.395Z,40.97
2023-06-30T06:11:40.368Z,41.20
2023-06-30T06:12:40.352Z,41.24
2023-06-30T06:13:40.356Z,41.15
2023-06-30T06:14:40.409Z,41.12
2023-06-30T06:15:40.343Z,41.05
2023-06-30T06:16:40.383Z,41.06
2023-06-30T06:17:40.360Z,41.08
2023-06-30T06:18:40.335Z,41.10
2023-06-30T06:19:40.365Z,41.06
2023-06-30T06:20:40.310Z,40.99
2023-06-30T06:21:40.320Z,41.06
2023-06-30T06:22:40.291Z,41.08
2023-06-30T06:23:40.284Z,41.03
2023-06-30T06:24:40.289Z,41.07
2023-06-30T06:25:40.284Z,41.09
2023-06-30T06:26:40.764Z,41.06
2023-06-30T06:27:40.267Z,41.08
2023-06-30T06:28:40.248Z,41.13
2023-06-30T06:29:40.240Z,41.08
2023-06-30T06:30:40.272Z,41.09
2023-06-30T06:31:40.228Z,41.16
2023-06-30T06:32:40.333Z,41.16
2023-06-30T06:33:40.223Z,41.14
2023-06-30T06:34:40.206Z,41.13
2023-06-30T06:35:40.220Z,41.13
2023-06-30T06:36:40.201Z,41.17
2023-06-30T06:37:40.232Z,41.12
2023-06-30T06:38:40.175Z,41.17
2023-06-30T06:39:40.177Z,41.19
2023-06-30T06:40:40.177Z,41.24
2023-06-30T06:41:40.152Z,41.24
2023-06-30T06:42:40.147Z,41.22
2023-06-30T06:43:40.136Z,41.24
2023-06-30T06:44:40.765Z,41.21
2023-06-30T06:45:40.125Z,41.24
2023-06-30T06:46:40.274Z,41.27
2023-06-30T06:47:40.187Z,41.34
2023-06-30T06:48:40.127Z,41.56
2023-06-30T06:49:40.164Z,41.64
2023-06-30T06:50:40.092Z,41.75
2023-06-30T06:51:40.084Z,41.84
2023-06-30T06:52:40.091Z,41.92
2023-06-30T06:53:40.125Z,42.04
2023-06-30T06:54:40.081Z,42.08
2023-06-30T06:55:40.066Z,42.12
2023-06-30T06:56:40.054Z,42.18
2023-06-30T06:57:40.065Z,42.21
2023-06-30T06:58:40.045Z,42.15
2023-06-30T06:59:40.054Z,42.32
2023-06-30T07:00:40.026Z,42.29
2023-06-30T07:01:40.297Z,42.15
2023-06-30T07:02:40.077Z,42.23
2023-06-30T07:03:40.028Z,42.19
2023-06-30T07:04:40.001Z,42.18
2023-06-30T07:05:39.987Z,42.31
2023-06-30T07:06:40.115Z,42.31
2023-06-30T07:07:40.056Z,42.36
2023-06-30T07:08:39.968Z,42.28
2023-06-30T07:09:39.989Z,42.26
2023-06-30T07:10:39.954Z,42.37
2023-06-30T07:11:39.943Z,42.51
2023-06-30T07:12:39.935Z,42.58
2023-06-30T07:13:39.927Z,42.47
2023-06-30T07:14:39.917Z,42.33
2023-06-30T07:15:39.917Z,42.47
2023-06-30T07:16:39.986Z,42.60
2023-06-30T07:17:40.017Z,42.70
2023-06-30T07:18:39.985Z,42.64
2023-06-30T07:19:39.883Z,42.73
2023-06-30T07:20:39.879Z,42.62
2023-06-30T07:21:39.873Z,42.70
2023-06-30T07:22:39.894Z,42.46
2023-06-30T07:23:40.276Z,42.27
2023-06-30T07:24:43.887Z,42.16
2023-06-30T07:25:40.321Z,42.12
2023-06-30T07:26:39.905Z,42.30
2023-06-30T07:27:39.892Z,42.38
2023-06-30T07:28:39.867Z,42.53
2023-06-30T07:29:39.868Z,42.56
2023-06-30T07:30:39.860Z,42.55
2023-06-30T07:31:39.891Z,42.48
2023-06-30T07:32:39.867Z,42.47
2023-06-30T07:33:39.855Z,42.54
2023-06-30T07:34:39.825Z,42.62
2023-06-30T07:35:39.819Z,42.53
2023-06-30T07:36:39.820Z,42.52
2023-06-30T07:37:39.807Z,42.49
2023-06-30T07:38:39.873Z,42.54
2023-06-30T07:39:39.802Z,42.56
2023-06-30T07:41:38.829Z,42.64
2023-06-30T07:42:39.777Z,42.68
2023-06-30T07:43:39.773Z,42.73
2023-06-30T07:44:39.763Z,42.71
2023-06-30T07:45:39.769Z,42.76
2023-06-30T07:46:39.749Z,42.74
2023-06-30T07:47:39.828Z,42.73
2023-06-30T07:48:39.797Z,42.72
2023-06-30T07:49:39.720Z,42.58
2023-06-30T07:50:41.439Z,42.57
2023-06-30T07:51:39.707Z,42.59
2023-06-30T07:52:40.173Z,42.58
2023-06-30T07:53:39.807Z,42.60
2023-06-30T07:54:39.689Z,42.53
2023-06-30T07:55:39.686Z,42.44
2023-06-30T07:56:39.688Z,42.57
2023-06-30T07:57:39.725Z,42.66
2023-06-30T07:58:39.650Z,42.57
2023-06-30T07:59:39.660Z,42.64
2023-06-30T08:00:39.645Z,42.63
2023-06-30T08:01:39.649Z,42.66
2023-06-30T08:02:39.906Z,42.67
2023-06-30T08:03:39.882Z,42.70
2023-06-30T08:04:39.925Z,42.71
2023-06-30T08:05:40.033Z,42.77
2023-06-30T08:06:39.647Z,42.81
2023-06-30T08:07:48.875Z,42.84
2023-06-30T08:08:39.638Z,42.88
2023-06-30T08:09:39.633Z,42.92
2023-06-30T08:10:40.855Z,42.95
2023-06-30T08:11:39.608Z,42.92
2023-06-30T08:12:39.605Z,42.91
2023-06-30T08:13:39.623Z,42.95
2023-06-30T08:14:39.713Z,42.93
2023-06-30T08:15:39.589Z,42.98
2023-06-30T08:16:39.601Z,42.98
2023-06-30T08:17:51.921Z,42.96
2023-06-30T08:18:39.644Z,42.96
2023-06-30T08:19:47.815Z,42.95
2023-06-30T08:20:39.575Z,42.90
2023-06-30T08:21:39.621Z,42.98
2023-06-30T08:22:39.529Z,42.97
2023-06-30T08:23:39.524Z,43.01
2023-06-30T08:24:39.522Z,43.01
2023-06-30T08:25:39.519Z,43.05
2023-06-30T08:26:39.509Z,43.04
2023-06-30T08:27:39.501Z,43.07
2023-06-30T08:28:39.506Z,43.05
2023-06-30T08:29:39.510Z,43.03
2023-06-30T08:30:39.524Z,43.00
2023-06-30T08:31:39.546Z,43.04
2023-06-30T08:32:39.493Z,43.07
2023-06-30T08:33:41.174Z,43.09
2023-06-30T08:34:39.464Z,43.03
2023-06-30T08:35:39.455Z,43.06
2023-06-30T08:36:39.462Z,43.04
2023-06-30T08:37:39.458Z,43.07
2023-06-30T08:38:39.431Z,43.05
2023-06-30T08:39:39.425Z,43.12
2023-06-30T08:40:39.420Z,43.13
2023-06-30T08:41:39.438Z,43.20
2023-06-30T08:42:39.404Z,43.17
2023-06-30T08:43:39.450Z,43.24
2023-06-30T08:44:39.386Z,43.20
2023-06-30T08:45:39.411Z,43.30
2023-06-30T08:46:39.411Z,43.32
2023-06-30T08:47:39.406Z,43.34
2023-06-30T08:48:39.386Z,43.30
2023-06-30T08:49:39.354Z,43.21
2023-06-30T08:50:39.366Z,43.14
2023-06-30T08:51:39.355Z,43.22
2023-06-30T08:52:39.333Z,43.24
2023-06-30T08:53:39.348Z,43.26
2023-06-30T08:54:39.316Z,43.24
2023-06-30T08:55:39.347Z,43.27
2023-06-30T08:56:39.302Z,43.24
2023-06-30T08:57:39.309Z,43.22
2023-06-30T08:58:39.293Z,43.19
2023-06-30T08:59:39.284Z,43.27
2023-06-30T09:00:39.365Z,43.29
2023-06-30T09:01:39.307Z,43.28
2023-06-30T09:02:39.471Z,43.26
2023-06-30T09:03:39.301Z,43.23
2023-06-30T09:04:39.272Z,43.18
2023-06-30T09:05:39.296Z,43.24
2023-06-30T09:06:39.240Z,43.24
2023-06-30T09:07:39.249Z,43.20
2023-06-30T09:08:39.799Z,43.15
2023-06-30T09:09:39.214Z,43.19
2023-06-30T09:10:39.237Z,43.22
2023-06-30T09:11:39.200Z,43.18
2023-06-30T09:12:39.189Z,43.21
2023-06-30T09:13:39.194Z,43.18
2023-06-30T09:14:39.191Z,43.22
2023-06-30T09:15:39.222Z,43.25
2023-06-30T09:16:39.212Z,43.21
2023-06-30T09:17:39.187Z,43.25
2023-06-30T09:18:39.166Z,43.20
2023-06-30T09:19:39.181Z,43.25
2023-06-30T09:20:39.142Z,43.29
2023-06-30T09:21:39.145Z,43.32
2023-06-30T09:22:54.851Z,43.35
2023-06-30T09:23:39.116Z,43.37
2023-06-30T09:24:39.168Z,43.40
2023-06-30T09:25:39.163Z,43.36
2023-06-30T09:26:39.099Z,43.35
2023-06-30T09:27:39.091Z,43.26
2023-06-30T09:28:39.081Z,43.21
2023-06-30T09:29:39.076Z,43.03
2023-06-30T09:30:39.084Z,43.16
2023-06-30T09:31:39.076Z,43.22
2023-06-30T09:32:39.094Z,43.22
2023-06-30T09:33:39.132Z,43.16
2023-06-30T09:34:39.035Z,43.10
2023-06-30T09:35:39.069Z,43.20
2023-06-30T09:36:39.024Z,43.36
2023-06-30T09:37:39.017Z,43.38
2023-06-30T09:38:39.013Z,43.23
2023-06-30T09:39:39.000Z,43.13
2023-06-30T09:40:38.992Z,43.18
2023-06-30T09:41:38.991Z,43.28
2023-06-30T09:42:38.983Z,43.28
2023-06-30T09:43:38.977Z,43.30
2023-06-30T09:44:38.977Z,43.33
2023-06-30T09:45:38.994Z,43.33
2023-06-30T09:46:39.094Z,43.30
2023-06-30T09:47:38.968Z,43.32
2023-06-30T09:48:38.935Z,43.30
2023-06-30T09:49:38.979Z,43.26
2023-06-30T09:50:38.929Z,43.16
2023-06-30T09:51:38.922Z,43.00
2023-06-30T09:52:38.978Z,43.02
2023-06-30T09:53:38.902Z,43.13
2023-06-30T09:54:44.497Z,43.02
2023-06-30T09:55:38.891Z,43.02
2023-06-30T09:56:38.890Z,42.91
2023-06-30T09:57:38.921Z,42.77
2023-06-30T09:58:38.873Z,42.80
2023-06-30T09:59:38.858Z,42.67
2023-06-30T10:00:38.853Z,42.71
2023-06-30T10:01:38.873Z,42.69
2023-06-30T10:02:38.888Z,42.68
2023-06-30T10:03:38.906Z,42.73
2023-06-30T10:04:38.831Z,42.59
2023-06-30T10:05:38.863Z,42.51
2023-06-30T10:06:38.825Z,42.44
2023-06-30T10:07:38.864Z,42.43
2023-06-30T10:08:38.800Z,42.42
2023-06-30T10:09:38.800Z,42.42
2023-06-30T10:10:38.837Z,42.44
2023-06-30T10:11:38.776Z,42.45
2023-06-30T10:12:38.779Z,42.38
2023-06-30T10:13:38.762Z,42.37
2023-06-30T10:14:38.761Z,42.45
2023-06-30T10:15:38.744Z,42.48
2023-06-30T10:16:38.742Z,42.56
2023-06-30T10:17:38.863Z,42.58
2023-06-30T10:18:38.764Z,42.61
2023-06-30T10:19:38.721Z,42.59
2023-06-30T10:21:38.755Z,42.64
2023-06-30T10:22:38.699Z,42.65
2023-06-30T10:23:38.695Z,42.65
2023-06-30T10:24:38.684Z,42.64
2023-06-30T10:25:38.702Z,42.65
2023-06-30T10:26:38.667Z,42.65
2023-06-30T10:27:38.660Z,42.62
2023-06-30T10:28:38.659Z,42.61
2023-06-30T10:29:38.648Z,42.67
2023-06-30T10:30:38.694Z,42.64
2023-06-30T10:31:38.732Z,42.60
2023-06-30T10:32:38.716Z,42.59
2023-06-30T10:33:38.733Z,42.48
2023-06-30T10:34:38.647Z,42.48
2023-06-30T10:35:38.605Z,42.46
2023-06-30T10:36:38.597Z,42.43
2023-06-30T10:37:38.623Z,42.40
2023-06-30T10:38:38.681Z,42.45
2023-06-30T10:39:38.580Z,42.47
2023-06-30T10:40:38.592Z,42.39
2023-06-30T10:41:38.562Z,42.40
2023-06-30T10:42:38.558Z,42.38
2023-06-30T10:43:38.553Z,42.40
2023-06-30T10:44:38.552Z,42.42
2023-06-30T10:45:38.544Z,42.47
2023-06-30T10:46:38.858Z,42.56
2023-06-30T10:47:38.567Z,42.56
2023-06-30T10:48:38.571Z,42.55
2023-06-30T10:49:38.515Z,42.55
2023-06-30T10:50:38.502Z,42.53
2023-06-30T10:51:38.495Z,42.62
2023-06-30T10:52:38.515Z,42.57
2023-06-30T10:53:38.499Z,42.50
2023-06-30T10:54:38.531Z,42.54
2023-06-30T10:55:38.462Z,42.49
2023-06-30T10:56:38.461Z,42.50
2023-06-30T10:57:38.451Z,42.40
2023-06-30T10:58:38.445Z,42.39
2023-06-30T10:59:38.437Z,42.55
2023-06-30T11:00:38.426Z,42.47
2023-06-30T11:01:38.439Z,42.54
2023-06-30T11:02:38.527Z,42.52
2023-06-30T11:03:38.563Z,42.47
2023-06-30T11:04:38.485Z,42.49
2023-06-30T11:05:38.414Z,42.49
2023-06-30T11:06:38.386Z,42.38
2023-06-30T11:07:38.484Z,42.42
2023-06-30T11:08:38.370Z,42.48
2023-06-30T11:09:38.435Z,42.57
2023-06-30T11:10:38.356Z,42.65
2023-06-30T11:11:38.351Z,42.62
2023-06-30T11:12:38.343Z,42.59
2023-06-30T11:13:38.347Z,42.59
2023-06-30T11:14:38.332Z,42.62
2023-06-30T11:15:38.326Z,42.67
2023-06-30T11:16:38.312Z,42.59
2023-06-30T11:17:38.350Z,42.57
2023-06-30T11:18:38.478Z,42.56
2023-06-30T11:19:38.789Z,42.56
2023-06-30T11:20:38.290Z,42.53
2023-06-30T11:21:38.290Z,42.53
2023-06-30T11:22:38.270Z,42.50
2023-06-30T11:23:38.264Z,42.50
2023-06-30T11:24:38.258Z,42.57
2023-06-30T11:25:38.276Z,42.55
2023-06-30T11:26:38.263Z,42.53
2023-06-30T11:27:38.243Z,42.54
2023-06-30T11:28:38.236Z,42.50
2023-06-30T11:29:38.232Z,42.58
2023-06-30T11:30:38.248Z,42.59
2023-06-30T11:31:38.217Z,42.54
2023-06-30T11:32:38.371Z,42.49
2023-06-30T11:33:38.199Z,42.51
2023-06-30T11:34:38.191Z,42.54
2023-06-30T11:35:38.184Z,42.57
2023-06-30T11:36:38.180Z,42.58
2023-06-30T11:37:38.308Z,42.58
2023-06-30T11:38:38.171Z,42.55
2023-06-30T11:39:38.156Z,42.54
2023-06-30T11:40:38.150Z,42.56
2023-06-30T11:41:38.167Z,42.62
2023-06-30T11:42:38.133Z,42.55
2023-06-30T11:43:38.134Z,42.58
2023-06-30T11:44:38.133Z,42.58
2023-06-30T11:45:38.108Z,42.55
2023-06-30T11:46:38.160Z,42.54
2023-06-30T11:47:38.102Z,42.53
2023-06-30T11:48:38.094Z,42.55
2023-06-30T11:49:38.088Z,42.53
2023-06-30T11:50:38.071Z,42.60
2023-06-30T11:51:38.069Z,42.57
2023-06-30T11:52:38.065Z,42.50
2023-06-30T11:53:38.046Z,42.59
2023-06-30T11:54:38.094Z,42.56
2023-06-30T11:55:38.033Z,42.54
2023-06-30T11:56:38.021Z,42.56
2023-06-30T11:57:38.061Z,42.52
2023-06-30T11:58:38.017Z,42.58
2023-06-30T11:59:38.001Z,42.59
2023-06-30T12:00:37.988Z,42.51
2023-06-30T12:01:37.980Z,42.55
2023-06-30T12:02:38.060Z,42.66
2023-06-30T12:03:38.017Z,42.54
2023-06-30T12:04:38.020Z,42.59
2023-06-30T12:05:37.974Z,42.57
2023-06-30T12:06:37.951Z,42.52
2023-06-30T12:07:37.994Z,42.56
2023-06-30T12:08:37.939Z,42.56
2023-06-30T12:09:37.946Z,42.55
2023-06-30T12:10:37.970Z,42.52
2023-06-30T12:11:37.919Z,42.51
2023-06-30T12:12:37.906Z,42.53
2023-06-30T12:13:37.946Z,42.59
2023-06-30T12:14:37.897Z,42.57
2023-06-30T12:15:38.006Z,42.59
2023-06-30T12:16:37.907Z,42.55
2023-06-30T12:17:37.891Z,42.57
2023-06-30T12:18:38.099Z,42.58
2023-06-30T12:19:37.863Z,42.52
2023-06-30T12:20:37.919Z,42.55
2023-06-30T12:21:37.855Z,42.54
2023-06-30T12:22:37.840Z,42.54
2023-06-30T12:23:37.837Z,42.45
2023-06-30T12:24:37.832Z,42.57
2023-06-30T12:25:37.820Z,42.59
2023-06-30T12:26:37.815Z,42.70
2023-06-30T12:27:37.806Z,42.70
2023-06-30T12:28:37.801Z,42.60
2023-06-30T12:29:38.049Z,42.58
2023-06-30T12:30:37.795Z,42.56
2023-06-30T12:31:36.920Z,42.64
2023-06-30T12:32:37.798Z,42.56
2023-06-30T12:33:37.768Z,42.53
2023-06-30T12:34:37.833Z,42.57
2023-06-30T12:35:37.769Z,42.53
2023-06-30T12:36:37.791Z,42.61
2023-06-30T12:37:37.809Z,42.72
2023-06-30T12:38:37.815Z,42.71
2023-06-30T12:39:37.858Z,42.61
2023-06-30T12:40:37.872Z,42.73
2023-06-30T12:41:37.876Z,42.83
2023-06-30T12:42:37.904Z,42.58
2023-06-30T12:43:38.068Z,42.65
2023-06-30T12:44:37.882Z,42.66
2023-06-30T12:45:37.907Z,42.63
2023-06-30T12:46:37.998Z,42.64
2023-06-30T12:47:37.926Z,42.68
2023-06-30T12:48:37.915Z,42.70
2023-06-30T12:49:37.950Z,42.72
2023-06-30T12:50:38.056Z,42.54
2023-06-30T12:51:37.980Z,42.46
2023-06-30T12:52:38.014Z,42.37
2023-06-30T12:53:38.051Z,42.50
2023-06-30T12:54:38.080Z,42.59